Time;durP1;ratioP1;P1;durP2;ratioP2;P2;SDS_P1;SDS_P2;PMS_P1;PMS_P2;Temp;Humidity;BMP_temperature;BMP_pressure;BME280_temperature;BME280_humidity;BME280_pressure;Samples;Min_cycle;Max_cycle;Signal;HPM_P1;HPM_P2
2024/01/20 00:00:42;;;;;;;10.65;5.53;;;;;;;;;;5075955;28;20108;-71
2024/01/20 00:03:10;;;;;;;8.93;5.68;;;;;;;;;;5088531;28;20048;-71
2024/01/20 00:05:40;;;;;;;11.77;6.10;;;;;;;;;;5088331;28;20121;-70
2024/01/20 00:08:09;;;;;;;12.65;6.50;;;;;;;;;;5083414;28;20056;-70
2024/01/20 00:10:37;;;;;;;9.57;5.50;;;;;;;;;;5084249;28;20044;-70
2024/01/20 00:13:06;;;;;;;12.85;5.97;;;;;;;;;;5081958;28;20044;-70
2024/01/20 00:15:34;;;;;;;10.75;5.95;;;;;;;;;;5086213;28;20502;-70
2024/01/20 00:18:03;;;;;;;10.15;5.85;;;;;;;;;;5085959;28;20074;-70
2024/01/20 00:20:32;;;;;;;11.70;6.40;;;;;;;;;;5069918;28;20079;-70
2024/01/20 00:23:02;;;;;;;9.75;5.32;;;;;;;;;;5070979;28;20040;-70
2024/01/20 00:25:30;;;;;;;11.57;6.10;;;;;;;;;;5084680;28;20068;-70
2024/01/20 00:28:00;;;;;;;7.38;4.30;;;;;;;;;;5088339;28;20115;-70
2024/01/20 00:30:29;;;;;;;11.02;5.93;;;;;;;;;;5084235;28;20477;-70
2024/01/20 00:32:57;;;;;;;12.65;6.10;;;;;;;;;;5086538;28;20142;-70
2024/01/20 00:35:26;;;;;;;10.35;5.95;;;;;;;;;;5088330;28;20068;-70
2024/01/20 00:37:55;;;;;;;8.43;5.13;;;;;;;;;;5088493;28;20105;-70
2024/01/20 00:40:25;;;;;;;6.70;4.78;;;;;;;;;;5092702;28;20098;-70
2024/01/20 00:42:53;;;;;;;7.93;4.80;;;;;;;;;;5091133;28;20408;-70
2024/01/20 00:45:22;;;;;;;9.07;5.38;;;;;;;;;;5088257;28;20051;-70
2024/01/20 00:47:50;;;;;;;14.13;5.63;;;;;;;;;;5078230;28;20079;-70
2024/01/20 00:50:19;;;;;;;8.30;5.20;;;;;;;;;;5091134;28;20040;-70
2024/01/20 00:52:47;;;;;;;10.02;5.05;;;;;;;;;;5090358;28;20044;-70
2024/01/20 00:55:16;;;;;;;7.35;4.50;;;;;;;;;;5089680;28;20093;-69
2024/01/20 00:57:45;;;;;;;7.22;4.75;;;;;;;;;;5079997;28;20052;-69
2024/01/20 01:00:14;;;;;;;8.82;5.03;;;;;;;;;;5082068;28;20056;-70
2024/01/20 01:02:43;;;;;;;10.40;4.80;;;;;;;;;;5082360;28;20101;-70
2024/01/20 01:05:11;;;;;;;12.50;5.35;;;;;;;;;;5075643;28;20073;-70
2024/01/20 01:07:40;;;;;;;10.32;4.75;;;;;;;;;;5083396;28;20138;-71
2024/01/20 01:10:09;;;;;;;8.35;5.32;;;;;;;;;;5085819;28;20048;-70
2024/01/20 01:12:37;;;;;;;7.57;3.95;;;;;;;;;;5091582;28;20469;-70
2024/01/20 01:15:07;;;;;;;8.75;4.60;;;;;;;;;;5089303;28;20055;-70
2024/01/20 01:17:36;;;;;;;6.55;4.07;;;;;;;;;;5085820;28;20068;-69
2024/01/20 01:20:05;;;;;;;8.50;4.22;;;;;;;;;;5087216;28;20062;-69
2024/01/20 01:22:33;;;;;;;6.68;4.38;;;;;;;;;;5084509;28;20055;-69
2024/01/20 01:25:02;;;;;;;6.78;4.60;;;;;;;;;;5085646;28;20044;-71
2024/01/20 01:27:30;;;;;;;5.30;4.18;;;;;;;;;;5084439;28;20058;-70
2024/01/20 01:29:59;;;;;;;8.02;4.05;;;;;;;;;;5091633;28;20048;-69
2024/01/20 01:32:28;;;;;;;7.43;4.78;;;;;;;;;;5090371;28;20044;-69
2024/01/20 01:34:57;;;;;;;8.50;3.75;;;;;;;;;;5086680;28;20405;-69
2024/01/20 01:37:25;;;;;;;6.70;3.92;;;;;;;;;;5090176;28;20074;-71
2024/01/20 01:39:53;;;;;;;6.38;3.67;;;;;;;;;;5079076;28;20060;-70
2024/01/20 01:42:21;;;;;;;8.82;4.13;;;;;;;;;;5080808;28;20109;-69
2024/01/20 01:44:50;;;;;;;7.15;3.90;;;;;;;;;;5088267;28;20550;-69
2024/01/20 01:47:18;;;;;;;7.68;3.55;;;;;;;;;;5090068;28;20153;-69
2024/01/20 01:49:48;;;;;;;5.10;3.80;;;;;;;;;;5090291;28;20063;-70
2024/01/20 01:52:16;;;;;;;4.30;3.10;;;;;;;;;;5089313;28;20537;-70
2024/01/20 01:54:45;;;;;;;5.97;3.45;;;;;;;;;;5091727;28;20101;-69
2024/01/20 01:57:15;;;;;;;4.50;3.33;;;;;;;;;;5081954;28;20052;-69
2024/01/20 01:59:43;;;;;;;7.03;3.78;;;;;;;;;;5089412;28;20079;-70
2024/01/20 02:02:12;;;;;;;4.80;3.40;;;;;;;;;;5088331;28;20505;-70
2024/01/20 02:04:40;;;;;;;5.25;3.08;;;;;;;;;;5081498;28;20431;-69
2024/01/20 02:07:10;;;;;;;6.88;3.35;;;;;;;;;;5088188;28;20127;-69
2024/01/20 02:09:39;;;;;;;5.65;3.60;;;;;;;;;;5090502;28;20503;-72
2024/01/20 02:12:08;;;;;;;3.38;3.08;;;;;;;;;;5087959;28;20106;-70
2024/01/20 02:14:37;;;;;;;5.55;3.13;;;;;;;;;;5088964;28;20072;-71
2024/01/20 02:17:06;;;;;;;6.63;3.00;;;;;;;;;;5078644;28;20084;-69
2024/01/20 02:19:37;;;;;;;4.00;2.63;;;;;;;;;;5085944;28;20044;-71
2024/01/20 02:22:11;;;;;;;7.90;2.95;;;;;;;;;;5089218;28;20048;-69
2024/01/20 02:24:40;;;;;;;6.65;2.83;;;;;;;;;;5079540;28;20055;-70
2024/01/20 02:27:09;;;;;;;3.20;2.80;;;;;;;;;;5076947;28;20501;-70
2024/01/20 02:29:39;;;;;;;5.15;2.75;;;;;;;;;;5090278;28;20479;-70
2024/01/20 02:32:08;;;;;;;4.15;2.42;;;;;;;;;;5086568;28;20446;-69
2024/01/20 02:34:37;;;;;;;7.57;3.28;;;;;;;;;;5086300;28;20079;-70
2024/01/20 02:37:07;;;;;;;6.35;3.47;;;;;;;;;;5089023;28;20048;-70
2024/01/20 02:39:37;;;;;;;4.25;2.38;;;;;;;;;;5081221;28;20040;-70
2024/01/20 02:42:08;;;;;;;4.68;2.85;;;;;;;;;;5086439;28;20094;-70
2024/01/20 02:44:37;;;;;;;2.95;2.63;;;;;;;;;;5090525;28;20048;-69
2024/01/20 02:47:05;;;;;;;4.93;3.17;;;;;;;;;;5085508;28;20087;-70
2024/01/20 02:49:34;;;;;;;4.15;3.17;;;;;;;;;;5085477;28;20052;-70
2024/01/20 02:52:02;;;;;;;4.35;2.72;;;;;;;;;;5085085;28;20044;-71
2024/01/20 02:54:31;;;;;;;4.90;2.85;;;;;;;;;;5085107;28;20528;-69
2024/01/20 02:57:01;;;;;;;4.13;3.30;;;;;;;;;;5087494;28;20119;-69
2024/01/20 02:59:29;;;;;;;5.07;2.45;;;;;;;;;;5083359;28;20574;-69
2024/01/20 03:01:58;;;;;;;6.03;2.88;;;;;;;;;;5086715;28;20043;-70
2024/01/20 03:04:26;;;;;;;3.55;2.15;;;;;;;;;;5084376;28;20044;-71
2024/01/20 03:06:55;;;;;;;4.60;3.03;;;;;;;;;;5084047;28;20371;-69
2024/01/20 03:09:23;;;;;;;3.47;2.78;;;;;;;;;;5085533;28;20055;-70
2024/01/20 03:11:52;;;;;;;4.20;1.98;;;;;;;;;;5086800;28;20575;-70
2024/01/20 03:14:21;;;;;;;5.10;2.70;;;;;;;;;;5089335;28;20040;-70
2024/01/20 03:16:50;;;;;;;3.72;2.47;;;;;;;;;;5086085;28;20184;-72
2024/01/20 03:19:18;;;;;;;3.63;2.63;;;;;;;;;;5085879;28;20055;-70
2024/01/20 03:21:47;;;;;;;3.42;2.08;;;;;;;;;;5081244;28;20117;-72
2024/01/20 03:24:18;;;;;;;2.38;2.17;;;;;;;;;;5085427;28;20076;-74
2024/01/20 03:26:47;;;;;;;2.85;2.38;;;;;;;;;;5086001;28;20044;-70
2024/01/20 03:29:15;;;;;;;3.47;2.67;;;;;;;;;;5086659;28;20075;-70
2024/01/20 03:31:45;;;;;;;4.25;2.47;;;;;;;;;;5085455;28;20051;-70
2024/01/20 03:34:13;;;;;;;2.65;2.42;;;;;;;;;;5082737;28;20127;-70
2024/01/20 03:36:42;;;;;;;3.17;2.13;;;;;;;;;;5083252;28;21134;-72
2024/01/20 03:39:14;;;;;;;3.38;2.47;;;;;;;;;;5083073;28;20044;-71
2024/01/20 03:41:42;;;;;;;2.65;2.38;;;;;;;;;;5088395;28;20127;-70
2024/01/20 03:44:10;;;;;;;3.83;2.55;;;;;;;;;;5079332;28;20497;-71
2024/01/20 03:46:39;;;;;;;3.30;2.45;;;;;;;;;;5087208;28;20044;-70
2024/01/20 03:49:09;;;;;;;3.17;2.45;;;;;;;;;;5086862;28;20460;-70
2024/01/20 03:51:37;;;;;;;5.82;2.50;;;;;;;;;;5069638;28;20428;-70
2024/01/20 03:54:06;;;;;;;3.88;2.58;;;;;;;;;;5080212;28;20130;-73
2024/01/20 03:56:34;;;;;;;3.20;2.60;;;;;;;;;;5083813;28;20055;-70
2024/01/20 03:59:02;;;;;;;6.90;3.15;;;;;;;;;;5084232;28;20079;-71
2024/01/20 04:01:31;;;;;;;4.65;2.30;;;;;;;;;;5088161;28;20082;-70
2024/01/20 04:03:59;;;;;;;3.28;2.78;;;;;;;;;;5080613;28;20049;-70
2024/01/20 04:06:31;;;;;;;3.78;2.47;;;;;;;;;;5086986;28;20480;-70
2024/01/20 04:09:00;;;;;;;4.03;2.20;;;;;;;;;;5086814;28;20085;-70
2024/01/20 04:11:28;;;;;;;3.50;2.85;;;;;;;;;;5081393;28;20049;-70
2024/01/20 04:13:57;;;;;;;3.88;2.65;;;;;;;;;;5086204;28;20116;-70
2024/01/20 04:16:25;;;;;;;3.90;2.85;;;;;;;;;;5088435;28;20052;-71
2024/01/20 04:18:53;;;;;;;4.18;2.55;;;;;;;;;;5085276;28;20603;-70
2024/01/20 04:21:23;;;;;;;3.05;2.58;;;;;;;;;;5083800;28;20083;-70
2024/01/20 04:23:53;;;;;;;4.82;2.92;;;;;;;;;;5082901;28;20044;-71
2024/01/20 04:26:21;;;;;;;4.93;2.75;;;;;;;;;;5084604;28;20051;-70
2024/01/20 04:28:50;;;;;;;3.95;2.53;;;;;;;;;;5082627;28;20128;-72
2024/01/20 04:31:18;;;;;;;3.70;2.50;;;;;;;;;;5081902;28;20420;-70
2024/01/20 04:33:46;;;;;;;2.90;2.25;;;;;;;;;;5075678;28;20525;-71
2024/01/20 04:36:15;;;;;;;3.22;2.83;;;;;;;;;;5088054;28;20052;-70
2024/01/20 04:38:43;;;;;;;3.25;2.75;;;;;;;;;;5087493;28;20048;-70
2024/01/20 04:41:13;;;;;;;7.82;2.72;;;;;;;;;;5086511;28;20103;-71
2024/01/20 04:43:42;;;;;;;3.00;2.33;;;;;;;;;;5082925;28;20105;-70
2024/01/20 04:46:10;;;;;;;1.88;1.75;;;;;;;;;;5087563;28;20051;-70
2024/01/20 04:48:38;;;;;;;2.55;2.35;;;;;;;;;;5081016;28;20048;-70
2024/01/20 04:51:07;;;;;;;4.78;2.80;;;;;;;;;;5082438;28;20055;-70
2024/01/20 04:53:35;;;;;;;2.60;2.40;;;;;;;;;;5083423;28;20054;-71
2024/01/20 04:56:04;;;;;;;3.05;2.35;;;;;;;;;;5081873;28;20482;-71
2024/01/20 04:58:34;;;;;;;5.13;2.75;;;;;;;;;;5083254;28;20044;-70
2024/01/20 05:01:02;;;;;;;4.25;2.38;;;;;;;;;;5076898;28;20048;-71
2024/01/20 05:03:31;;;;;;;3.78;2.67;;;;;;;;;;5074414;28;20045;-70
2024/01/20 05:05:59;;;;;;;3.95;2.30;;;;;;;;;;5085724;28;20130;-70
2024/01/20 05:08:28;;;;;;;6.32;2.47;;;;;;;;;;5084324;28;20105;-71
2024/01/20 05:10:56;;;;;;;5.80;2.92;;;;;;;;;;5077134;28;20067;-71
2024/01/20 05:13:24;;;;;;;3.70;2.42;;;;;;;;;;5077668;28;20423;-70
2024/01/20 05:15:54;;;;;;;4.10;2.53;;;;;;;;;;5074211;28;20041;-70
2024/01/20 05:18:22;;;;;;;3.33;2.30;;;;;;;;;;5081049;28;20056;-70
2024/01/20 05:20:51;;;;;;;4.18;2.40;;;;;;;;;;5084925;28;20071;-71
2024/01/20 05:23:19;;;;;;;4.30;3.10;;;;;;;;;;5083917;28;20080;-71
2024/01/20 05:25:48;;;;;;;5.65;2.50;;;;;;;;;;5090115;28;20493;-72
2024/01/20 05:28:16;;;;;;;2.33;2.13;;;;;;;;;;5086350;28;20076;-70
2024/01/20 05:30:45;;;;;;;2.80;2.08;;;;;;;;;;5081207;28;20052;-71
2024/01/20 05:33:14;;;;;;;5.38;2.45;;;;;;;;;;5077313;28;20060;-70
2024/01/20 05:35:43;;;;;;;7.63;2.70;;;;;;;;;;5082734;28;20054;-70
2024/01/20 05:38:11;;;;;;;3.38;2.25;;;;;;;;;;5088527;28;20120;-70
2024/01/20 05:40:40;;;;;;;1.88;1.60;;;;;;;;;;5089650;28;20040;-70
2024/01/20 05:43:08;;;;;;;3.15;2.10;;;;;;;;;;5090393;28;20075;-70
2024/01/20 05:45:36;;;;;;;2.13;1.88;;;;;;;;;;5090061;28;20044;-70
2024/01/20 05:48:05;;;;;;;2.05;1.85;;;;;;;;;;5086608;28;20044;-70
2024/01/20 05:50:35;;;;;;;4.60;2.42;;;;;;;;;;5084334;28;20041;-73
2024/01/20 05:53:03;;;;;;;2.00;1.80;;;;;;;;;;5085760;28;20047;-71
2024/01/20 05:55:32;;;;;;;6.55;2.45;;;;;;;;;;5089272;28;20164;-70
2024/01/20 05:58:00;;;;;;;3.50;2.20;;;;;;;;;;5083102;28;20036;-70
2024/01/20 06:00:28;;;;;;;3.10;1.70;;;;;;;;;;5087562;28;20343;-70
2024/01/20 06:02:57;;;;;;;2.08;1.88;;;;;;;;;;5076907;28;20040;-70
2024/01/20 06:05:25;;;;;;;2.17;1.98;;;;;;;;;;5082357;28;20508;-70
2024/01/20 06:07:55;;;;;;;2.50;2.20;;;;;;;;;;5084313;28;20463;-70
2024/01/20 06:10:23;;;;;;;2.75;2.22;;;;;;;;;;5087437;28;20135;-70
2024/01/20 06:12:52;;;;;;;2.35;1.63;;;;;;;;;;5083157;28;20118;-70
2024/01/20 06:15:20;;;;;;;2.95;1.75;;;;;;;;;;5087303;28;20106;-71
2024/01/20 06:17:48;;;;;;;8.20;2.28;;;;;;;;;;5088688;28;20561;-70
2024/01/20 06:20:17;;;;;;;3.22;2.40;;;;;;;;;;5078559;28;20044;-70
2024/01/20 06:22:46;;;;;;;1.88;1.77;;;;;;;;;;5088892;28;20328;-71
2024/01/20 06:25:15;;;;;;;2.20;1.75;;;;;;;;;;5088673;28;20129;-70
2024/01/20 06:27:44;;;;;;;3.22;2.08;;;;;;;;;;5087640;28;20485;-71
2024/01/20 06:30:13;;;;;;;1.80;1.70;;;;;;;;;;5088781;28;20488;-70
2024/01/20 06:32:41;;;;;;;2.97;2.47;;;;;;;;;;5086829;28;20067;-70
2024/01/20 06:35:10;;;;;;;3.72;2.50;;;;;;;;;;5088645;28;20051;-70
2024/01/20 06:37:38;;;;;;;2.15;1.90;;;;;;;;;;5082451;28;20044;-71
2024/01/20 06:40:08;;;;;;;1.95;1.80;;;;;;;;;;5084546;28;20118;-72
2024/01/20 06:42:38;;;;;;;4.47;2.45;;;;;;;;;;5077512;28;20081;-70
2024/01/20 06:45:06;;;;;;;2.53;2.13;;;;;;;;;;5084210;28;20062;-70
2024/01/20 06:47:35;;;;;;;4.35;1.92;;;;;;;;;;5088107;28;20149;-71
2024/01/20 06:50:04;;;;;;;2.67;1.95;;;;;;;;;;5089497;28;20151;-70
2024/01/20 06:52:32;;;;;;;2.28;2.08;;;;;;;;;;5080255;28;20451;-71
2024/01/20 06:55:01;;;;;;;2.53;2.00;;;;;;;;;;5078870;28;20130;-69
2024/01/20 06:57:30;;;;;;;2.90;1.92;;;;;;;;;;5088730;28;20135;-72
2024/01/20 07:00:00;;;;;;;3.10;1.80;;;;;;;;;;5080281;28;20493;-70
2024/01/20 07:02:30;;;;;;;2.65;2.13;;;;;;;;;;5087010;28;20057;-69
2024/01/20 07:04:58;;;;;;;2.38;2.00;;;;;;;;;;5088203;28;20058;-71
2024/01/20 07:07:28;;;;;;;2.88;2.50;;;;;;;;;;5086688;28;20093;-69
2024/01/20 07:09:57;;;;;;;2.60;1.88;;;;;;;;;;5081911;28;20101;-69
2024/01/20 07:12:25;;;;;;;2.28;1.90;;;;;;;;;;5084501;28;20076;-70
2024/01/20 07:14:56;;;;;;;2.35;2.08;;;;;;;;;;5083893;28;20501;-71
2024/01/20 07:17:26;;;;;;;2.58;2.17;;;;;;;;;;5076815;28;20247;-70
2024/01/20 07:19:54;;;;;;;2.17;1.92;;;;;;;;;;5081701;28;20036;-69
2024/01/20 07:22:22;;;;;;;2.35;1.70;;;;;;;;;;5084118;28;20485;-68
2024/01/20 07:24:51;;;;;;;2.92;2.40;;;;;;;;;;5078279;28;20109;-69
2024/01/20 07:27:19;;;;;;;1.85;1.63;;;;;;;;;;5083681;28;20118;-69
2024/01/20 07:29:48;;;;;;;1.85;1.63;;;;;;;;;;5080171;28;20040;-71
2024/01/20 07:32:16;;;;;;;2.47;2.28;;;;;;;;;;5088680;28;20048;-69
2024/01/20 07:34:46;;;;;;;1.98;1.63;;;;;;;;;;5078159;28;20451;-68
2024/01/20 07:37:15;;;;;;;2.10;1.98;;;;;;;;;;5080823;28;20135;-72
2024/01/20 07:39:46;;;;;;;1.38;1.35;;;;;;;;;;5085997;28;20108;-69
2024/01/20 07:42:15;;;;;;;1.70;1.60;;;;;;;;;;5079476;28;20056;-69
2024/01/20 07:44:43;;;;;;;1.75;1.60;;;;;;;;;;5087970;28;20052;-68
2024/01/20 07:47:14;;;;;;;3.85;2.20;;;;;;;;;;5086426;28;20083;-71
2024/01/20 07:49:42;;;;;;;2.17;1.88;;;;;;;;;;5086849;28;20496;-69
2024/01/20 07:52:12;;;;;;;3.60;2.00;;;;;;;;;;5085166;28;20165;-68
2024/01/20 07:54:40;;;;;;;1.80;1.70;;;;;;;;;;5081109;28;20052;-69
2024/01/20 07:57:09;;;;;;;1.55;1.45;;;;;;;;;;5070738;28;20439;-68
2024/01/20 07:59:38;;;;;;;1.75;1.60;;;;;;;;;;5076066;28;20052;-67
2024/01/20 08:02:06;;;;;;;2.90;2.10;;;;;;;;;;5086909;28;20052;-69
2024/01/20 08:04:35;;;;;;;2.28;1.52;;;;;;;;;;5085119;28;20487;-68
2024/01/20 08:07:03;;;;;;;2.63;1.30;;;;;;;;;;5076026;28;20122;-70
2024/01/20 08:09:33;;;;;;;1.58;1.45;;;;;;;;;;5084621;28;20525;-70
2024/01/20 08:12:02;;;;;;;3.30;2.17;;;;;;;;;;5082099;28;20079;-73
2024/01/20 08:14:31;;;;;;;2.05;1.50;;;;;;;;;;5085061;28;20153;-68
2024/01/20 08:16:59;;;;;;;1.90;1.70;;;;;;;;;;5088307;28;20048;-70
2024/01/20 08:19:28;;;;;;;2.20;2.08;;;;;;;;;;5080772;28;20542;-69
2024/01/20 08:21:56;;;;;;;4.40;1.50;;;;;;;;;;5087520;28;20086;-71
2024/01/20 08:24:25;;;;;;;2.33;2.15;;;;;;;;;;5087069;28;20484;-69
2024/01/20 08:26:55;;;;;;;2.67;1.98;;;;;;;;;;5085834;28;20048;-68
2024/01/20 08:29:24;;;;;;;3.15;1.98;;;;;;;;;;5085108;28;20063;-70
2024/01/20 08:31:52;;;;;;;4.32;2.10;;;;;;;;;;5085698;28;20059;-70
2024/01/20 08:34:20;;;;;;;2.70;2.10;;;;;;;;;;5084385;28;20056;-68
2024/01/20 08:36:49;;;;;;;2.30;1.85;;;;;;;;;;5087272;28;20481;-68
2024/01/20 08:39:18;;;;;;;2.45;1.70;;;;;;;;;;5088006;28;20142;-71
2024/01/20 08:41:47;;;;;;;2.83;1.90;;;;;;;;;;5079795;28;20044;-71
2024/01/20 08:44:16;;;;;;;1.55;1.45;;;;;;;;;;5078234;28;20137;-70
2024/01/20 08:46:47;;;;;;;3.00;1.85;;;;;;;;;;5083757;28;20305;-68
2024/01/20 08:49:16;;;;;;;2.42;2.13;;;;;;;;;;5075612;28;20489;-74
2024/01/20 08:51:44;;;;;;;2.72;2.00;;;;;;;;;;5074674;28;20098;-68
2024/01/20 08:54:13;;;;;;;1.70;1.60;;;;;;;;;;5087020;28;20470;-70
2024/01/20 08:56:41;;;;;;;3.38;2.00;;;;;;;;;;5082106;28;20045;-70
2024/01/20 08:59:10;;;;;;;1.73;1.55;;;;;;;;;;5078111;28;20125;-70
2024/01/20 09:01:39;;;;;;;2.10;1.52;;;;;;;;;;5087376;28;20070;-69
2024/01/20 09:04:08;;;;;;;3.00;1.80;;;;;;;;;;5088449;28;20048;-69
2024/01/20 09:06:36;;;;;;;3.20;1.80;;;;;;;;;;5087916;28;20048;-68
2024/01/20 09:09:05;;;;;;;2.45;2.22;;;;;;;;;;5082872;28;20515;-73
2024/01/20 09:11:34;;;;;;;2.28;2.03;;;;;;;;;;5087697;28;20051;-68
2024/01/20 09:14:02;;;;;;;1.73;1.63;;;;;;;;;;5080618;28;20048;-67
2024/01/20 09:16:31;;;;;;;1.52;1.40;;;;;;;;;;5088352;28;20052;-67
2024/01/20 09:19:00;;;;;;;2.88;2.00;;;;;;;;;;5075239;28;20044;-69
2024/01/20 09:21:29;;;;;;;1.90;1.77;;;;;;;;;;5081517;28;20079;-69
2024/01/20 09:23:58;;;;;;;2.72;1.73;;;;;;;;;;5083281;28;20427;-67
2024/01/20 09:26:26;;;;;;;1.92;1.73;;;;;;;;;;5088770;28;20047;-67
2024/01/20 09:28:55;;;;;;;2.28;1.85;;;;;;;;;;5084494;28;20052;-69
2024/01/20 09:31:23;;;;;;;2.28;2.08;;;;;;;;;;5084399;28;20470;-72
2024/01/20 09:33:52;;;;;;;4.63;2.35;;;;;;;;;;5079784;28;20048;-68
2024/01/20 09:36:22;;;;;;;3.10;2.13;;;;;;;;;;5089106;28;20264;-67
2024/01/20 09:38:50;;;;;;;3.53;2.10;;;;;;;;;;5084738;28;20070;-67
2024/01/20 09:41:19;;;;;;;2.83;2.28;;;;;;;;;;5089500;28;20081;-67
2024/01/20 09:43:47;;;;;;;2.20;1.85;;;;;;;;;;5089560;28;20040;-70
2024/01/20 09:46:15;;;;;;;2.42;2.08;;;;;;;;;;5089880;28;20047;-68
2024/01/20 09:48:44;;;;;;;3.20;2.00;;;;;;;;;;5090866;28;20101;-67
2024/01/20 09:51:13;;;;;;;3.20;2.03;;;;;;;;;;5089675;28;20044;-67
2024/01/20 09:53:44;;;;;;;5.28;2.22;;;;;;;;;;5089159;28;20084;-68
2024/01/20 09:56:12;;;;;;;2.80;2.20;;;;;;;;;;5084007;28;20103;-74
2024/01/20 09:58:42;;;;;;;3.58;2.75;;;;;;;;;;5083595;28;20093;-74
2024/01/20 10:01:10;;;;;;;3.83;2.10;;;;;;;;;;5084422;28;20040;-67
2024/01/20 10:03:41;;;;;;;3.92;2.40;;;;;;;;;;5084294;28;20055;-67
2024/01/20 10:06:09;;;;;;;4.90;2.33;;;;;;;;;;5090131;28;20055;-67
2024/01/20 10:08:37;;;;;;;3.30;2.05;;;;;;;;;;5088129;28;20058;-68
2024/01/20 10:11:07;;;;;;;4.25;2.53;;;;;;;;;;5081489;28;20532;-68
2024/01/20 10:13:36;;;;;;;2.53;2.30;;;;;;;;;;5090291;28;20052;-66
2024/01/20 10:16:04;;;;;;;2.92;2.30;;;;;;;;;;5088305;28;20040;-67
2024/01/20 10:18:33;;;;;;;3.80;2.70;;;;;;;;;;5089309;28;20044;-66
2024/01/20 10:21:02;;;;;;;2.63;2.15;;;;;;;;;;5086225;28;20044;-70
2024/01/20 10:23:30;;;;;;;2.50;2.20;;;;;;;;;;5086849;28;20250;-67
2024/01/20 10:26:02;;;;;;;3.03;2.10;;;;;;;;;;5088536;28;20101;-67
2024/01/20 10:28:32;;;;;;;3.85;2.40;;;;;;;;;;5087386;28;20068;-67
2024/01/20 10:31:06;;;;;;;3.80;2.58;;;;;;;;;;5089681;28;20485;-66
2024/01/20 10:33:34;;;;;;;3.53;2.23;;;;;;;;;;5082027;28;20113;-67
2024/01/20 10:36:04;;;;;;;4.32;2.63;;;;;;;;;;5083326;28;20339;-68
2024/01/20 10:38:36;;;;;;;3.13;2.15;;;;;;;;;;5084330;28;20045;-67
2024/01/20 10:41:06;;;;;;;4.82;2.10;;;;;;;;;;5075906;28;20119;-69
2024/01/20 10:43:39;;;;;;;4.82;2.72;;;;;;;;;;5081305;28;20131;-69
2024/01/20 10:46:12;;;;;;;3.63;2.40;;;;;;;;;;5086672;28;20079;-68
2024/01/20 10:48:43;;;;;;;3.05;2.00;;;;;;;;;;5086926;28;20727;-69
2024/01/20 10:51:13;;;;;;;2.10;1.88;;;;;;;;;;5083965;28;20056;-68
2024/01/20 10:53:42;;;;;;;3.10;2.40;;;;;;;;;;5084047;28;20056;-67
2024/01/20 10:56:11;;;;;;;2.67;2.20;;;;;;;;;;5088750;28;20083;-67
2024/01/20 10:58:43;;;;;;;3.65;2.40;;;;;;;;;;5080302;28;20146;-69
2024/01/20 11:01:11;;;;;;;3.47;2.53;;;;;;;;;;5086093;28;20071;-67
2024/01/20 11:03:40;;;;;;;2.30;2.10;;;;;;;;;;5084620;28;20045;-67
2024/01/20 11:06:19;;;;;;;4.25;2.63;;;;;;;;;;5086607;28;20074;-66
2024/01/20 11:08:50;;;;;;;3.65;2.40;;;;;;;;;;5086211;28;20131;-69
2024/01/20 11:11:19;;;;;;;2.28;2.08;;;;;;;;;;5088287;28;20543;-69
2024/01/20 11:13:49;;;;;;;3.75;2.42;;;;;;;;;;5081448;28;20068;-65
2024/01/20 11:16:21;;;;;;;2.75;2.15;;;;;;;;;;5082202;28;20466;-63
2024/01/20 11:18:50;;;;;;;3.17;2.55;;;;;;;;;;5081765;28;20075;-68
2024/01/20 11:21:19;;;;;;;2.72;1.95;;;;;;;;;;5077745;28;20559;-65
2024/01/20 11:23:59;;;;;;;3.72;2.10;;;;;;;;;;5079231;28;20048;-68
2024/01/20 11:26:33;;;;;;;5.72;2.30;;;;;;;;;;5086119;28;20135;-69
2024/01/20 11:29:04;;;;;;;5.90;2.83;;;;;;;;;;5082499;28;20051;-65
2024/01/20 11:31:33;;;;;;;2.45;1.95;;;;;;;;;;5080807;28;20135;-65
2024/01/20 11:34:02;;;;;;;7.47;2.58;;;;;;;;;;5085119;28;20048;-66
2024/01/20 11:36:32;;;;;;;2.90;2.13;;;;;;;;;;5088511;28;20040;-65
2024/01/20 11:39:03;;;;;;;4.88;2.03;;;;;;;;;;5083887;28;20107;-71
2024/01/20 11:41:31;;;;;;;5.75;2.33;;;;;;;;;;5080971;28;20044;-68
2024/01/20 11:44:00;;;;;;;3.22;1.88;;;;;;;;;;5087231;28;20052;-65
2024/01/20 11:46:30;;;;;;;2.97;2.20;;;;;;;;;;5081662;28;20068;-68
2024/01/20 11:48:58;;;;;;;2.60;2.13;;;;;;;;;;5083539;28;20114;-64
2024/01/20 11:51:26;;;;;;;4.65;2.63;;;;;;;;;;5085217;28;20048;-66
2024/01/20 11:53:55;;;;;;;2.97;1.98;;;;;;;;;;5086085;28;20488;-67
2024/01/20 11:56:24;;;;;;;2.83;2.13;;;;;;;;;;5080397;28;20137;-66
2024/01/20 11:58:53;;;;;;;2.75;1.95;;;;;;;;;;5087165;28;20044;-67
2024/01/20 12:01:21;;;;;;;8.27;2.08;;;;;;;;;;5080687;28;20120;-65
2024/01/20 12:03:51;;;;;;;2.50;1.90;;;;;;;;;;5086492;28;20074;-66
2024/01/20 12:06:20;;;;;;;4.28;1.90;;;;;;;;;;5083930;28;20075;-68
2024/01/20 12:08:48;;;;;;;3.35;1.73;;;;;;;;;;5080561;28;20563;-69
2024/01/20 12:11:20;;;;;;;2.83;1.80;;;;;;;;;;5083440;28;20352;-67
2024/01/20 12:13:50;;;;;;;2.17;1.92;;;;;;;;;;5086422;28;20547;-65
2024/01/20 12:16:19;;;;;;;6.85;2.28;;;;;;;;;;5087292;28;20044;-66
2024/01/20 12:18:47;;;;;;;3.45;2.30;;;;;;;;;;5077486;28;20560;-67
2024/01/20 12:21:18;;;;;;;4.95;3.03;;;;;;;;;;5080434;28;20037;-63
2024/01/20 12:23:47;;;;;;;7.30;2.42;;;;;;;;;;5083126;28;20046;-66
2024/01/20 12:26:17;;;;;;;5.78;2.33;;;;;;;;;;5085566;28;20133;-69
2024/01/20 12:28:50;;;;;;;2.50;2.05;;;;;;;;;;5086597;28;20117;-65
2024/01/20 12:31:18;;;;;;;3.55;2.17;;;;;;;;;;5085846;28;20044;-65
2024/01/20 12:33:50;;;;;;;4.00;1.88;;;;;;;;;;5082723;28;20105;-69
2024/01/20 12:36:20;;;;;;;2.63;2.00;;;;;;;;;;5081414;28;20040;-65
2024/01/20 12:38:49;;;;;;;1.90;1.80;;;;;;;;;;5087770;28;20044;-66
2024/01/20 12:41:17;;;;;;;1.90;1.65;;;;;;;;;;5083467;28;20052;-69
2024/01/20 12:43:48;;;;;;;4.53;2.40;;;;;;;;;;5078914;28;20044;-69
2024/01/20 12:46:17;;;;;;;2.40;2.05;;;;;;;;;;5079615;28;20055;-66
2024/01/20 12:48:46;;;;;;;2.25;1.88;;;;;;;;;;5081314;28;20423;-67
2024/01/20 12:51:15;;;;;;;3.15;2.00;;;;;;;;;;5082151;28;20049;-65
2024/01/20 12:53:45;;;;;;;4.72;1.95;;;;;;;;;;5086600;28;20576;-65
2024/01/20 12:56:13;;;;;;;2.83;2.10;;;;;;;;;;5079228;28;20048;-66
2024/01/20 12:58:42;;;;;;;2.92;1.90;;;;;;;;;;5085183;28;20111;-66
2024/01/20 13:01:10;;;;;;;2.75;2.17;;;;;;;;;;5079606;28;20120;-67
2024/01/20 13:03:38;;;;;;;2.33;1.75;;;;;;;;;;5085673;28;20071;-65
2024/01/20 13:06:07;;;;;;;3.63;2.05;;;;;;;;;;5087164;28;20052;-67
2024/01/20 13:08:36;;;;;;;3.45;2.03;;;;;;;;;;5082434;28;20508;-72
2024/01/20 13:11:06;;;;;;;2.55;1.52;;;;;;;;;;5081578;28;20052;-69
2024/01/20 13:13:34;;;;;;;3.10;1.75;;;;;;;;;;5080822;28;20109;-69
2024/01/20 13:16:02;;;;;;;4.07;1.98;;;;;;;;;;5081271;28;20041;-66
2024/01/20 13:18:31;;;;;;;2.22;1.77;;;;;;;;;;5083407;28;20090;-66
2024/01/20 13:21:00;;;;;;;2.03;1.60;;;;;;;;;;5084634;28;20051;-67
2024/01/20 13:23:29;;;;;;;3.63;1.90;;;;;;;;;;5081561;28;20052;-66
2024/01/20 13:26:00;;;;;;;2.20;2.00;;;;;;;;;;5082612;28;20196;-67
2024/01/20 13:28:33;;;;;;;4.20;2.25;;;;;;;;;;5085116;28;20052;-67
2024/01/20 13:31:01;;;;;;;3.03;2.00;;;;;;;;;;5082138;28;20489;-67
2024/01/20 13:33:30;;;;;;;3.13;1.63;;;;;;;;;;5082711;28;20555;-66
2024/01/20 13:35:58;;;;;;;3.42;2.33;;;;;;;;;;5081279;28;20076;-67
2024/01/20 13:38:27;;;;;;;6.10;2.35;;;;;;;;;;5075379;28;20044;-67
2024/01/20 13:40:55;;;;;;;2.65;1.55;;;;;;;;;;5084146;28;20049;-66
2024/01/20 13:43:23;;;;;;;3.35;1.92;;;;;;;;;;5077959;28;20089;-68
2024/01/20 13:45:53;;;;;;;4.05;1.65;;;;;;;;;;5079920;28;20040;-69
2024/01/20 13:48:21;;;;;;;2.72;1.88;;;;;;;;;;5077194;28;20040;-69
2024/01/20 13:50:50;;;;;;;4.38;1.58;;;;;;;;;;5089739;28;20039;-69
2024/01/20 13:53:19;;;;;;;1.75;1.63;;;;;;;;;;5088150;28;20106;-69
2024/01/20 13:55:48;;;;;;;4.85;1.60;;;;;;;;;;5089007;28;20056;-69
2024/01/20 13:58:16;;;;;;;5.90;2.30;;;;;;;;;;5089269;28;20052;-69
2024/01/20 14:00:46;;;;;;;2.58;1.50;;;;;;;;;;5083481;28;20059;-69
2024/01/20 14:03:16;;;;;;;5.57;1.58;;;;;;;;;;5086384;28;20040;-69
2024/01/20 14:05:46;;;;;;;2.63;1.65;;;;;;;;;;5091059;28;20135;-69
2024/01/20 14:08:15;;;;;;;4.30;1.85;;;;;;;;;;5090909;28;20048;-69
2024/01/20 14:10:43;;;;;;;2.15;1.95;;;;;;;;;;5087659;28;20056;-69
2024/01/20 14:13:12;;;;;;;3.55;1.83;;;;;;;;;;5087312;28;20061;-69
2024/01/20 14:15:40;;;;;;;3.08;1.60;;;;;;;;;;5088001;28;20484;-70
2024/01/20 14:18:09;;;;;;;1.95;1.70;;;;;;;;;;5089646;28;20488;-70
2024/01/20 14:20:39;;;;;;;2.15;1.80;;;;;;;;;;5089983;28;20044;-69
2024/01/20 14:23:07;;;;;;;1.80;1.60;;;;;;;;;;5090695;28;20050;-69
2024/01/20 14:25:36;;;;;;;2.22;1.50;;;;;;;;;;5086004;28;20132;-70
2024/01/20 14:28:04;;;;;;;3.92;2.10;;;;;;;;;;5083702;28;20462;-70
2024/01/20 14:30:33;;;;;;;1.80;1.67;;;;;;;;;;5089290;28;20093;-70
2024/01/20 14:33:01;;;;;;;10.05;1.95;;;;;;;;;;5091100;28;20075;-70
2024/01/20 14:35:30;;;;;;;5.85;2.00;;;;;;;;;;5090143;28;20047;-70
2024/01/20 14:38:00;;;;;;;2.53;1.80;;;;;;;;;;5089655;28;20072;-70
2024/01/20 14:40:28;;;;;;;2.05;1.60;;;;;;;;;;5084291;28;20071;-70
2024/01/20 14:42:56;;;;;;;2.63;1.58;;;;;;;;;;5085840;28;20052;-70
2024/01/20 14:45:25;;;;;;;2.50;1.70;;;;;;;;;;5089002;28;20131;-70
2024/01/20 14:47:53;;;;;;;3.53;1.70;;;;;;;;;;5086601;28;20047;-70
2024/01/20 14:50:22;;;;;;;2.25;1.75;;;;;;;;;;5089555;28;20050;-70
2024/01/20 14:52:50;;;;;;;7.32;1.95;;;;;;;;;;5086895;28;20052;-70